createdAt,value
2022-12-15T00:00:16.705Z,11.02
2022-12-15T00:03:02.628Z,11.02
2022-12-15T00:05:50.108Z,11.18
2022-12-15T00:08:36.596Z,10.35
2022-12-15T00:11:23.080Z,12.07
2022-12-15T00:14:08.942Z,7.50
2022-12-15T00:16:54.559Z,9.85
2022-12-15T00:19:40.894Z,8.85
2022-12-15T00:22:26.606Z,8.55
2022-12-15T00:25:12.456Z,10.27
2022-12-15T00:27:58.190Z,9.18
2022-12-15T00:30:43.854Z,10.15
2022-12-15T00:33:31.042Z,10.00
2022-12-15T00:36:18.338Z,7.18
2022-12-15T00:38:46.670Z,8.52
2022-12-15T00:41:17.147Z,7.18
2022-12-15T00:43:44.847Z,8.82
2022-12-15T00:46:31.338Z,7.10
2022-12-15T00:48:59.031Z,7.80
2022-12-15T00:51:45.852Z,7.10
2022-12-15T00:54:32.230Z,6.68
2022-12-15T00:57:17.842Z,10.73
2022-12-15T01:00:03.733Z,8.15
2022-12-15T01:02:50.379Z,8.13
2022-12-15T01:05:36.382Z,8.98
2022-12-15T01:08:22.251Z,8.50
2022-12-15T01:11:08.008Z,7.68
2022-12-15T01:13:54.150Z,8.48
2022-12-15T01:16:40.057Z,8.30
2022-12-15T01:19:27.534Z,6.55
2022-12-15T01:21:55.144Z,7.65
2022-12-15T01:24:22.654Z,9.55
2022-12-15T01:26:50.227Z,8.70
2022-12-15T01:29:17.838Z,9.38
2022-12-15T01:31:45.422Z,7.15
2022-12-15T01:34:20.339Z,9.55
2022-12-15T01:36:47.835Z,7.75
2022-12-15T01:39:15.418Z,9.57
2022-12-15T01:41:42.836Z,7.78
2022-12-15T01:44:23.105Z,10.32
2022-12-15T01:46:55.258Z,6.60
2022-12-15T01:49:28.992Z,10.13
2022-12-15T01:52:00.189Z,9.40
2022-12-15T01:54:35.170Z,6.97
2022-12-15T01:57:20.382Z,10.18
2022-12-15T01:59:52.756Z,10.60
2022-12-15T02:02:25.035Z,9.98
2022-12-15T02:04:54.591Z,9.40
2022-12-15T02:07:22.240Z,9.65
2022-12-15T02:09:53.311Z,8.77
2022-12-15T02:12:32.861Z,8.30
2022-12-15T02:15:09.740Z,9.10
2022-12-15T02:18:09.473Z,10.57
2022-12-15T02:20:55.330Z,9.70
2022-12-15T02:23:35.166Z,11.88
2022-12-15T02:26:08.758Z,9.02
2022-12-15T02:28:58.043Z,10.30
2022-12-15T02:31:50.734Z,11.93
2022-12-15T02:34:27.213Z,9.77
2022-12-15T02:37:29.645Z,9.60
2022-12-15T02:39:57.165Z,10.15
2022-12-15T02:42:27.136Z,10.38
2022-12-15T02:45:04.465Z,10.05
2022-12-15T02:47:57.364Z,11.05
2022-12-15T02:50:36.044Z,9.50
2022-12-15T02:53:33.696Z,10.05
2022-12-15T02:56:12.809Z,12.57
2022-12-15T02:59:19.454Z,7.90
2022-12-15T03:02:01.203Z,13.50
2022-12-15T03:04:29.475Z,11.60
2022-12-15T03:07:01.243Z,8.90
2022-12-15T03:09:29.321Z,10.57
2022-12-15T03:11:57.021Z,8.63
2022-12-15T03:14:27.639Z,11.80
2022-12-15T03:16:56.110Z,7.50
2022-12-15T03:19:24.108Z,8.43
2022-12-15T03:21:51.833Z,9.20
2022-12-15T03:24:19.848Z,7.30
2022-12-15T03:26:50.335Z,8.23
2022-12-15T03:29:18.706Z,13.52
2022-12-15T03:31:46.331Z,11.02
2022-12-15T03:34:17.605Z,10.82
2022-12-15T03:36:45.120Z,6.85
2022-12-15T03:39:12.798Z,7.00
2022-12-15T03:41:41.906Z,9.85
2022-12-15T03:44:09.545Z,9.93
2022-12-15T03:46:37.015Z,9.70
2022-12-15T03:49:04.565Z,10.25
2022-12-15T03:51:32.062Z,9.25
2022-12-15T03:53:59.530Z,8.90
2022-12-15T03:56:27.075Z,10.43
2022-12-15T03:58:54.553Z,10.55
2022-12-15T04:01:22.105Z,5.40
2022-12-15T04:03:49.785Z,8.20
2022-12-15T04:06:17.490Z,10.88
2022-12-15T04:08:44.964Z,8.00
2022-12-15T04:11:18.450Z,8.88
2022-12-15T04:13:46.213Z,6.28
2022-12-15T04:16:19.340Z,10.20
2022-12-15T04:19:07.983Z,10.15
2022-12-15T04:21:35.546Z,10.32
2022-12-15T04:24:21.332Z,11.63
2022-12-15T04:27:07.072Z,11.43
2022-12-15T04:29:52.913Z,8.07
2022-12-15T04:32:38.779Z,9.55
2022-12-15T04:35:24.976Z,11.90
2022-12-15T04:38:10.912Z,13.10
2022-12-15T04:40:57.170Z,9.27
2022-12-15T04:43:43.923Z,6.55
2022-12-15T04:46:29.711Z,11.20
2022-12-15T04:49:15.689Z,9.85
2022-12-15T04:52:01.660Z,11.95
2022-12-15T04:54:47.725Z,10.75
2022-12-15T04:57:33.560Z,9.52
2022-12-15T05:00:19.257Z,10.77
2022-12-15T05:03:06.759Z,9.45
2022-12-15T05:05:52.544Z,10.90
2022-12-15T05:08:38.353Z,6.47
2022-12-15T05:11:24.569Z,9.07
2022-12-15T05:14:10.340Z,9.77
2022-12-15T05:16:56.197Z,6.57
2022-12-15T05:19:42.251Z,7.40
2022-12-15T05:22:28.224Z,7.88
2022-12-15T05:25:14.129Z,9.07
2022-12-15T05:27:59.856Z,7.55
2022-12-15T05:30:45.634Z,8.80
2022-12-15T05:33:13.148Z,8.98
2022-12-15T05:35:40.749Z,9.35
2022-12-15T05:38:08.304Z,7.25
2022-12-15T05:40:35.894Z,7.95
2022-12-15T05:43:03.617Z,7.47
2022-12-15T05:45:31.101Z,6.93
2022-12-15T05:47:58.604Z,7.28
2022-12-15T05:50:26.197Z,7.90
2022-12-15T05:52:54.487Z,6.68
2022-12-15T05:55:21.981Z,6.15
2022-12-15T05:57:54.131Z,8.35
2022-12-15T06:00:22.168Z,6.97
2022-12-15T06:02:50.227Z,6.28
2022-12-15T06:05:18.075Z,8.38
2022-12-15T06:07:45.827Z,8.32
2022-12-15T06:10:13.358Z,9.70
2022-12-15T06:12:41.127Z,9.68
2022-12-15T06:15:09.076Z,9.13
2022-12-15T06:17:36.754Z,8.55
2022-12-15T06:20:04.889Z,6.60
2022-12-15T06:22:32.525Z,9.40
2022-12-15T06:25:00.073Z,8.32
2022-12-15T06:27:27.602Z,7.70
2022-12-15T06:29:55.053Z,7.40
2022-12-15T06:32:22.619Z,7.40
2022-12-15T06:34:50.299Z,9.35
2022-12-15T06:37:17.698Z,8.88
2022-12-15T06:39:45.259Z,8.32
2022-12-15T06:42:14.887Z,10.43
2022-12-15T06:44:42.445Z,7.43
2022-12-15T06:47:10.049Z,7.35
2022-12-15T06:49:37.722Z,7.63
2022-12-15T06:52:05.342Z,8.63
2022-12-15T06:54:32.839Z,8.07
2022-12-15T06:57:00.361Z,9.95
2022-12-15T06:59:27.848Z,6.72
2022-12-15T07:01:55.473Z,8.15
2022-12-15T07:04:23.149Z,7.25
2022-12-15T07:06:50.613Z,8.20
2022-12-15T07:09:18.425Z,8.13
2022-12-15T07:11:46.770Z,7.00
2022-12-15T07:14:14.315Z,9.73
2022-12-15T07:16:41.918Z,8.13
2022-12-15T07:19:12.825Z,6.78
2022-12-15T07:21:41.420Z,5.68
2022-12-15T07:24:11.888Z,9.45
2022-12-15T07:26:40.120Z,7.57
2022-12-15T07:29:07.666Z,8.98
2022-12-15T07:31:35.099Z,5.35
2022-12-15T07:34:02.692Z,10.68
2022-12-15T07:36:30.208Z,7.57
2022-12-15T07:39:01.226Z,6.72
2022-12-15T07:41:30.344Z,6.13
2022-12-15T07:43:58.883Z,9.35
2022-12-15T07:46:27.647Z,8.15
2022-12-15T07:48:55.272Z,7.63
2022-12-15T07:51:23.555Z,8.10
2022-12-15T07:53:51.473Z,7.13
2022-12-15T07:56:20.542Z,7.78
2022-12-15T07:58:48.266Z,6.20
2022-12-15T08:01:16.640Z,8.10
2022-12-15T08:03:45.474Z,7.50
2022-12-15T08:06:14.851Z,7.68
2022-12-15T08:08:50.304Z,7.13
2022-12-15T08:11:21.402Z,9.43
2022-12-15T08:14:02.538Z,6.50
2022-12-15T08:16:30.757Z,6.20
2022-12-15T08:18:58.413Z,7.00
2022-12-15T08:21:26.138Z,6.65
2022-12-15T08:23:53.771Z,6.65
2022-12-15T08:26:25.272Z,7.50
2022-12-15T08:29:11.733Z,8.95
2022-12-15T08:31:45.545Z,6.38
2022-12-15T08:34:14.603Z,7.15
2022-12-15T08:36:42.317Z,6.35
2022-12-15T08:39:10.038Z,5.80
2022-12-15T08:41:37.610Z,5.75
2022-12-15T08:44:05.275Z,8.23
2022-12-15T08:46:34.582Z,8.23
2022-12-15T08:49:03.558Z,7.28
2022-12-15T08:51:32.985Z,8.20
2022-12-15T08:54:01.525Z,7.25
2022-12-15T08:56:29.872Z,7.50
2022-12-15T08:59:00.050Z,7.55
2022-12-15T09:01:29.363Z,7.88
2022-12-15T09:03:58.163Z,7.03
2022-12-15T09:06:33.277Z,8.85
2022-12-15T09:09:03.340Z,7.55
2022-12-15T09:11:31.967Z,8.23
2022-12-15T09:13:59.672Z,5.30
2022-12-15T09:16:28.227Z,7.68
2022-12-15T09:18:59.195Z,6.40
2022-12-15T09:21:32.320Z,7.05
2022-12-15T09:24:02.158Z,9.02
2022-12-15T09:26:32.019Z,6.00
2022-12-15T09:29:00.480Z,7.68
2022-12-15T09:31:30.624Z,6.13
2022-12-15T09:33:59.741Z,7.38
2022-12-15T09:36:28.006Z,6.78
2022-12-15T09:38:57.440Z,7.82
2022-12-15T09:41:27.560Z,9.25
2022-12-15T09:43:58.780Z,7.93
2022-12-15T09:46:44.702Z,10.52
2022-12-15T09:49:44.403Z,9.05
2022-12-15T09:52:18.768Z,8.13
2022-12-15T09:54:46.799Z,8.73
2022-12-15T09:57:48.263Z,7.88
2022-12-15T10:00:31.451Z,6.60
2022-12-15T10:03:08.174Z,7.05
2022-12-15T10:06:14.216Z,8.82
2022-12-15T10:08:37.060Z,11.38
2022-12-15T10:11:24.102Z,9.55
2022-12-15T10:14:22.100Z,8.73
2022-12-15T10:17:03.005Z,7.95
2022-12-15T10:20:18.098Z,8.15
2022-12-15T10:22:46.453Z,6.75
2022-12-15T10:25:30.416Z,8.82
2022-12-15T10:28:45.156Z,8.57
2022-12-15T10:31:43.765Z,6.20
2022-12-15T10:34:24.228Z,8.15
2022-12-15T10:36:53.350Z,10.05
2022-12-15T10:39:22.262Z,7.63
2022-12-15T10:42:15.222Z,9.57
2022-12-15T10:44:50.531Z,9.73
2022-12-15T10:47:28.979Z,7.93
2022-12-15T10:50:24.307Z,7.43
2022-12-15T10:52:52.595Z,8.95
2022-12-15T10:55:40.579Z,6.40
2022-12-15T10:58:21.076Z,7.30
2022-12-15T11:01:04.966Z,7.75
2022-12-15T11:03:37.774Z,8.05
2022-12-15T11:06:16.432Z,7.15
2022-12-15T11:08:44.983Z,5.60
2022-12-15T11:11:50.761Z,9.23
2022-12-15T11:14:27.276Z,6.07
2022-12-15T11:16:57.682Z,5.07
2022-12-15T11:19:32.048Z,7.63
2022-12-15T11:22:13.044Z,7.63
2022-12-15T11:24:50.468Z,9.18
2022-12-15T11:27:32.318Z,7.63
2022-12-15T11:30:05.718Z,8.43
2022-12-15T11:32:35.665Z,7.78
2022-12-15T11:35:03.520Z,8.43
2022-12-15T11:37:42.083Z,8.63
2022-12-15T11:40:41.129Z,9.43
2022-12-15T11:43:27.213Z,8.75
2022-12-15T11:46:17.611Z,7.97
2022-12-15T11:49:26.935Z,7.05
2022-12-15T11:52:06.666Z,7.60
2022-12-15T11:54:54.187Z,8.43
2022-12-15T11:57:36.769Z,10.10
2022-12-15T12:00:21.876Z,10.82
2022-12-15T12:02:49.532Z,12.05
2022-12-15T12:06:00.909Z,10.23
2022-12-15T12:08:47.460Z,10.82
2022-12-15T12:11:43.473Z,11.68
2022-12-15T12:14:23.153Z,14.82
2022-12-15T12:17:06.669Z,21.05
2022-12-15T12:19:44.451Z,16.10
2022-12-15T12:22:24.321Z,14.10
2022-12-15T12:25:11.267Z,9.63
2022-12-15T12:27:48.759Z,12.40
2022-12-15T12:30:24.425Z,17.85
2022-12-15T12:33:03.669Z,15.43
2022-12-15T12:35:41.626Z,15.88
2022-12-15T12:38:14.015Z,17.15
2022-12-15T12:40:41.529Z,17.63
2022-12-15T12:43:14.142Z,14.07
2022-12-15T12:46:23.529Z,15.43
2022-12-15T12:49:12.831Z,17.52
2022-12-15T12:51:42.394Z,16.83
2022-12-15T12:54:31.656Z,20.95
2022-12-15T12:56:59.278Z,15.50
2022-12-15T12:59:29.833Z,15.82
2022-12-15T13:01:58.515Z,14.95
2022-12-15T13:04:29.095Z,14.70
2022-12-15T13:06:58.671Z,17.40
2022-12-15T13:09:43.491Z,15.43
2022-12-15T13:12:50.700Z,14.35
2022-12-15T13:15:29.144Z,14.73
2022-12-15T13:18:17.417Z,17.58
2022-12-15T13:20:50.541Z,14.30
2022-12-15T13:26:12.847Z,10.20
2022-12-15T13:28:45.572Z,20.98
2022-12-15T13:31:22.391Z,16.70
2022-12-15T13:33:50.096Z,10.50
2022-12-15T13:36:42.293Z,13.90
2022-12-15T13:39:12.770Z,8.85
2022-12-15T13:44:52.069Z,12.88
2022-12-15T13:47:19.527Z,14.88
2022-12-15T13:55:46.553Z,15.13
2022-12-15T13:58:21.347Z,13.13
2022-12-15T14:00:52.316Z,15.77
2022-12-15T14:03:20.440Z,10.48
2022-12-15T14:05:54.303Z,12.27
2022-12-15T14:08:24.415Z,13.05
2022-12-15T14:10:56.351Z,14.35
2022-12-15T14:13:31.600Z,13.30
2022-12-15T14:16:05.203Z,13.65
2022-12-15T14:18:35.422Z,11.73
2022-12-15T14:21:08.626Z,13.48
2022-12-15T14:23:52.512Z,14.73
2022-12-15T14:26:32.019Z,17.92
2022-12-15T14:29:06.414Z,15.65
2022-12-15T14:31:34.220Z,12.43
2022-12-15T14:34:11.263Z,13.82
2022-12-15T14:36:41.662Z,12.20
2022-12-15T14:39:29.843Z,11.48
2022-12-15T14:41:59.344Z,12.45
2022-12-15T14:44:38.159Z,13.60
2022-12-15T14:47:17.255Z,13.00
2022-12-15T14:49:46.551Z,9.68
2022-12-15T14:52:38.439Z,14.05
2022-12-15T14:55:37.144Z,13.55
2022-12-15T14:58:32.513Z,11.27
2022-12-15T15:01:01.697Z,11.50
2022-12-15T15:03:16.563Z,13.57
2022-12-15T15:03:38.559Z,14.52
2022-12-15T15:06:12.205Z,12.25
2022-12-15T15:11:37.861Z,10.77
2022-12-15T15:14:12.660Z,10.30
2022-12-15T15:16:40.920Z,9.73
2022-12-15T15:19:15.583Z,10.88
2022-12-15T15:21:43.214Z,9.25
2022-12-15T15:24:11.049Z,11.02
2022-12-15T15:26:40.414Z,15.77
2022-12-15T15:29:32.776Z,13.20
2022-12-15T15:32:17.955Z,11.85
2022-12-15T15:34:47.263Z,11.77
2022-12-15T15:37:18.250Z,12.25
2022-12-15T15:39:48.776Z,13.90
2022-12-15T15:42:16.609Z,12.88
2022-12-15T15:44:44.233Z,13.38
2022-12-15T15:47:32.072Z,12.43
2022-12-15T15:50:00.748Z,13.27
2022-12-15T15:52:32.154Z,12.18
2022-12-15T15:54:59.959Z,10.57
2022-12-15T15:57:27.582Z,14.05
2022-12-15T15:59:55.186Z,12.45
2022-12-15T16:02:22.836Z,13.23
2022-12-15T16:04:51.075Z,12.13
2022-12-15T16:07:25.981Z,12.07
2022-12-15T16:09:54.538Z,12.88
2022-12-15T16:12:30.223Z,9.45
2022-12-15T16:14:57.939Z,9.60
2022-12-15T16:17:25.754Z,11.15
2022-12-15T16:19:53.301Z,11.13
2022-12-15T16:22:22.736Z,10.68
2022-12-15T16:24:50.366Z,10.07
2022-12-15T16:27:18.193Z,12.55
2022-12-15T16:29:46.122Z,9.70
2022-12-15T16:32:13.594Z,9.65
2022-12-15T16:34:42.273Z,10.70
2022-12-15T16:37:40.388Z,9.82
2022-12-15T16:40:16.949Z,10.32
2022-12-15T16:42:48.191Z,9.55
2022-12-15T16:45:18.350Z,10.73
2022-12-15T16:47:46.750Z,12.35
2022-12-15T16:50:16.539Z,9.32
2022-12-15T16:52:47.780Z,10.82
2022-12-15T16:55:25.405Z,11.10
2022-12-15T16:58:03.801Z,12.13
2022-12-15T17:00:36.002Z,9.20
2022-12-15T17:03:04.168Z,12.73
2022-12-15T17:05:34.546Z,12.85
2022-12-15T17:08:08.770Z,11.32
2022-12-15T17:10:36.793Z,11.38
2022-12-15T17:13:39.183Z,11.82
2022-12-15T17:16:14.709Z,13.18
2022-12-15T17:18:45.729Z,10.70
2022-12-15T17:21:26.921Z,10.75
2022-12-15T17:24:00.798Z,10.50
2022-12-15T17:26:31.149Z,12.35
2022-12-15T17:29:08.052Z,11.43
2022-12-15T17:31:37.669Z,10.02
2022-12-15T17:34:28.053Z,11.15
2022-12-15T17:37:00.317Z,6.45
2022-12-15T17:39:28.684Z,10.63
2022-12-15T17:42:00.973Z,10.07
2022-12-15T17:44:37.351Z,7.57
2022-12-15T17:47:07.610Z,10.13
2022-12-15T17:49:38.663Z,10.30
2022-12-15T17:52:34.742Z,9.93
2022-12-15T17:55:08.344Z,10.13
2022-12-15T17:57:35.877Z,8.02
2022-12-15T18:00:06.607Z,9.32
2022-12-15T18:02:34.193Z,10.25
2022-12-15T18:05:02.037Z,9.02
2022-12-15T18:07:31.170Z,10.00
2022-12-15T18:09:58.730Z,9.30
2022-12-15T18:12:27.487Z,9.43
2022-12-15T18:14:56.488Z,9.65
2022-12-15T18:17:24.750Z,9.32
2022-12-15T18:19:52.285Z,10.10
2022-12-15T18:22:24.724Z,8.65
2022-12-15T18:24:53.920Z,10.30
2022-12-15T18:27:27.389Z,7.95
2022-12-15T18:29:55.468Z,8.93
2022-12-15T18:32:25.781Z,10.43
2022-12-15T18:34:54.365Z,10.75
2022-12-15T18:37:24.093Z,9.57
2022-12-15T18:39:52.093Z,10.73
2022-12-15T18:42:21.426Z,10.02
2022-12-15T18:44:51.991Z,8.98
2022-12-15T18:47:22.593Z,10.13
2022-12-15T18:49:50.444Z,10.35
2022-12-15T18:52:28.705Z,9.65
2022-12-15T18:54:59.119Z,9.00
2022-12-15T18:57:32.804Z,9.35
2022-12-15T19:02:30.460Z,10.57
2022-12-15T19:04:58.017Z,11.05
2022-12-15T19:07:25.686Z,11.10
2022-12-15T19:09:53.767Z,10.18
2022-12-15T19:12:21.402Z,9.00
2022-12-15T19:14:51.695Z,9.32
2022-12-15T19:17:40.663Z,7.80
2022-12-15T19:20:38.547Z,7.63
2022-12-15T19:23:07.253Z,7.05
2022-12-15T19:25:35.698Z,8.95
2022-12-15T19:28:03.181Z,7.97
2022-12-15T19:30:41.606Z,8.38
2022-12-15T19:33:11.693Z,7.97
2022-12-15T19:35:41.409Z,8.75
2022-12-15T19:38:19.796Z,8.35
2022-12-15T19:40:47.999Z,8.80
2022-12-15T19:43:18.418Z,9.55
2022-12-15T19:45:46.868Z,10.57
2022-12-15T19:48:17.561Z,10.40
2022-12-15T19:50:50.336Z,10.55
2022-12-15T19:53:24.361Z,8.43
2022-12-15T19:55:57.754Z,9.45
2022-12-15T19:58:29.498Z,12.52
2022-12-15T20:00:59.652Z,9.98
2022-12-15T20:03:28.419Z,10.27
2022-12-15T20:05:57.776Z,9.55
2022-12-15T20:08:29.147Z,10.00
2022-12-15T20:10:57.182Z,10.05
2022-12-15T20:13:26.717Z,7.68
2022-12-15T20:15:54.987Z,9.25
2022-12-15T20:18:22.819Z,10.65
2022-12-15T20:20:50.843Z,11.85
2022-12-15T20:23:29.659Z,9.38
2022-12-15T20:25:57.977Z,10.20
2022-12-15T20:28:30.155Z,8.27
2022-12-15T20:30:58.518Z,8.55
2022-12-15T20:33:26.093Z,10.18
2022-12-15T20:35:55.068Z,8.65
2022-12-15T20:38:31.880Z,8.05
2022-12-15T20:41:01.410Z,10.20
2022-12-15T20:43:32.020Z,10.00
2022-12-15T20:46:12.564Z,9.65
2022-12-15T20:48:40.546Z,11.25
2022-12-15T20:51:12.483Z,10.73
2022-12-15T20:53:39.957Z,11.18
2022-12-15T20:56:07.891Z,11.85
2022-12-15T20:58:41.571Z,12.45
2022-12-15T21:01:22.122Z,11.13
2022-12-15T21:03:52.133Z,10.77
2022-12-15T21:06:20.121Z,10.30
2022-12-15T21:08:47.963Z,9.73
2022-12-15T21:11:19.278Z,8.88
2022-12-15T21:13:49.389Z,8.63
2022-12-15T21:16:22.751Z,9.15
2022-12-15T21:19:18.517Z,8.65
2022-12-15T21:21:43.431Z,8.48
2022-12-15T21:24:20.061Z,12.10
2022-12-15T21:26:47.637Z,13.38
2022-12-15T21:29:21.133Z,14.48
2022-12-15T21:31:48.826Z,13.40
2022-12-15T21:34:16.762Z,12.52
2022-12-15T21:36:47.855Z,13.50
2022-12-15T21:39:24.293Z,12.00
2022-12-15T21:41:51.959Z,9.70
2022-12-15T21:44:19.417Z,10.02
2022-12-15T21:46:47.208Z,8.02
2022-12-15T21:49:15.858Z,9.35
2022-12-15T21:51:47.444Z,7.82
2022-12-15T21:54:21.511Z,8.32
2022-12-15T21:56:51.520Z,7.90
2022-12-15T21:59:25.293Z,7.38
2022-12-15T22:01:55.055Z,6.25
2022-12-15T22:04:49.508Z,6.88
2022-12-15T22:07:19.723Z,6.65
2022-12-15T22:09:47.194Z,6.15
2022-12-15T22:12:24.481Z,6.57
2022-12-15T22:14:52.286Z,6.45
2022-12-15T22:17:21.967Z,6.50
2022-12-15T22:19:49.676Z,5.60
2022-12-15T22:22:17.288Z,5.65
2022-12-15T22:24:45.036Z,5.93
2022-12-15T22:27:22.995Z,5.90
2022-12-15T22:29:50.935Z,5.43
2022-12-15T22:32:18.462Z,4.50
2022-12-15T22:34:46.036Z,4.63
2022-12-15T22:37:13.636Z,4.32
2022-12-15T22:39:41.142Z,3.70
2022-12-15T22:42:16.320Z,3.95
2022-12-15T22:44:44.809Z,3.30
2022-12-15T22:47:12.361Z,3.38
2022-12-15T22:49:41.523Z,3.85
2022-12-15T22:52:21.792Z,4.07
2022-12-15T22:54:49.346Z,3.40
2022-12-15T22:57:28.953Z,3.42
2022-12-15T23:00:03.173Z,3.15
2022-12-15T23:02:43.356Z,3.58
2022-12-15T23:05:14.059Z,4.25
2022-12-15T23:07:42.048Z,3.90
2022-12-15T23:10:29.943Z,3.40
2022-12-15T23:12:57.381Z,3.22
2022-12-15T23:15:45.699Z,3.20
2022-12-15T23:18:13.957Z,3.30
2022-12-15T23:20:42.364Z,3.63
2022-12-15T23:23:10.216Z,3.80
2022-12-15T23:25:38.189Z,3.95
2022-12-15T23:28:05.691Z,4.30
2022-12-15T23:30:33.186Z,4.00
2022-12-15T23:33:00.702Z,4.25
2022-12-15T23:35:28.158Z,4.00
2022-12-15T23:37:55.938Z,3.63
2022-12-15T23:40:23.492Z,3.92
2022-12-15T23:42:51.421Z,3.60
2022-12-15T23:45:20.082Z,3.38
2022-12-15T23:47:47.591Z,3.42
2022-12-15T23:50:15.134Z,3.08
2022-12-15T23:52:42.663Z,3.20
2022-12-15T23:55:10.429Z,3.10
2022-12-15T23:57:38.966Z,3.20
